createdAt,value
2023-02-12T08:09:37.032Z,4.63
2023-02-12T08:14:39.096Z,4.42
2023-02-12T08:19:41.125Z,4.03
2023-02-12T08:24:44.541Z,4.01
2023-02-12T08:29:46.981Z,3.77
2023-02-12T08:34:48.971Z,3.60
2023-02-12T08:39:52.384Z,3.37
2023-02-12T08:44:54.354Z,3.15
2023-02-12T08:49:56.341Z,3.23
2023-02-12T08:54:59.628Z,3.31
2023-02-12T09:00:01.669Z,3.69
2023-02-12T09:05:04.007Z,3.96
2023-02-12T09:10:08.368Z,3.82
2023-02-12T09:15:10.370Z,3.93
2023-02-12T09:20:12.785Z,4.11
2023-02-12T09:25:16.342Z,4.15
2023-02-12T09:30:19.068Z,4.16
2023-02-12T09:35:21.092Z,3.71
2023-02-12T09:40:31.753Z,3.96
2023-02-12T09:45:38.151Z,3.70
2023-02-12T09:50:46.479Z,3.79
2023-02-12T09:55:50.079Z,3.89
2023-02-12T10:00:52.063Z,4.01
2023-02-12T10:06:01.017Z,4.13
2023-02-12T10:11:23.676Z,3.98
2023-02-12T10:16:41.162Z,4.21
2023-02-12T10:21:54.346Z,4.02
2023-02-12T10:27:07.536Z,4.04
2023-02-12T10:32:20.424Z,3.98
2023-02-12T10:37:32.443Z,3.92
2023-02-12T10:42:40.848Z,4.17
2023-02-12T10:47:44.754Z,4.04
2023-02-12T10:52:49.888Z,4.20
2023-02-12T10:57:53.918Z,3.93
2023-02-12T11:03:05.606Z,3.50
2023-02-12T11:08:08.148Z,3.86
2023-02-12T11:13:24.631Z,3.98
2023-02-12T11:18:29.387Z,3.46
2023-02-12T11:23:33.609Z,3.37
2023-02-12T11:28:37.375Z,3.15
2023-02-12T11:33:39.387Z,3.34
2023-02-12T11:38:50.044Z,3.64
2023-02-12T11:43:54.079Z,3.64
2023-02-12T11:48:57.606Z,3.70
2023-02-12T11:54:02.854Z,3.69
2023-02-12T11:59:18.891Z,3.60
2023-02-12T12:04:23.580Z,3.72
2023-02-12T12:09:33.141Z,3.74
2023-02-12T12:15:00.971Z,3.92
2023-02-12T12:20:10.349Z,3.86
2023-02-12T12:25:25.164Z,3.65
2023-02-12T12:30:39.197Z,3.71
2023-02-12T12:35:52.085Z,4.16
2023-02-12T12:41:04.022Z,4.01
2023-02-12T12:46:22.136Z,4.20
2023-02-12T12:51:36.690Z,4.30
2023-02-12T12:56:49.265Z,4.83
2023-02-12T13:02:34.718Z,4.47
2023-02-12T13:07:47.266Z,4.16
2023-02-12T13:13:00.613Z,4.29
2023-02-12T13:18:14.174Z,4.26
2023-02-12T13:23:19.513Z,3.91
2023-02-12T13:28:29.521Z,3.95
2023-02-12T13:33:39.925Z,3.49
2023-02-12T13:38:46.790Z,3.56
2023-02-12T13:44:06.360Z,3.88
2023-02-12T13:49:24.255Z,3.48
2023-02-12T13:54:40.774Z,3.28
2023-02-12T13:59:46.523Z,3.46
2023-02-12T14:04:59.826Z,3.73
2023-02-12T14:10:05.237Z,3.19
2023-02-12T14:15:11.030Z,3.26
2023-02-12T14:20:27.906Z,3.31
2023-02-12T14:25:38.767Z,3.14
2023-02-12T14:30:41.113Z,3.28
2023-02-12T14:35:45.607Z,3.78
2023-02-12T14:40:48.310Z,3.93
2023-02-12T14:45:50.601Z,3.51
2023-02-12T14:50:55.121Z,3.35
2023-02-12T14:55:58.534Z,3.27
2023-02-12T15:01:03.917Z,2.93
2023-02-12T15:06:14.910Z,3.00
2023-02-12T15:11:24.984Z,3.17
2023-02-12T15:16:35.737Z,3.03
2023-02-12T15:21:39.381Z,2.98
2023-02-12T15:26:44.887Z,2.96
2023-02-12T15:31:51.751Z,3.14
2023-02-12T15:36:57.670Z,2.93
2023-02-12T15:41:59.657Z,2.76
2023-02-12T15:47:11.777Z,2.58
2023-02-12T15:52:48.035Z,2.51
2023-02-12T15:57:51.210Z,2.52
2023-02-12T16:02:53.412Z,2.44
2023-02-12T16:07:57.612Z,2.38
2023-02-12T16:12:59.777Z,2.11
2023-02-12T16:18:04.739Z,2.33
2023-02-12T16:23:09.468Z,2.00
2023-02-12T16:28:18.336Z,2.04
2023-02-12T16:33:34.244Z,2.09
2023-02-12T16:38:43.616Z,2.13
2023-02-12T16:43:46.543Z,1.80
2023-02-12T16:48:51.706Z,1.53
2023-02-12T16:53:57.719Z,1.35
2023-02-12T16:59:01.526Z,1.34
2023-02-12T17:04:07.224Z,1.59
2023-02-12T17:09:10.697Z,1.34
2023-02-12T17:14:16.275Z,1.10
2023-02-12T17:19:18.260Z,1.09
2023-02-12T17:24:24.443Z,0.78
2023-02-12T17:29:27.311Z,0.68
2023-02-12T17:34:32.099Z,0.71
2023-02-12T17:39:43.355Z,0.79
2023-02-12T17:44:45.404Z,0.77
2023-02-12T17:49:47.544Z,0.75
2023-02-12T17:54:50.897Z,0.76
2023-02-12T17:59:52.948Z,0.57
2023-02-12T18:04:54.958Z,0.43
2023-02-12T18:09:58.313Z,0.36
2023-02-12T18:15:01.779Z,0.30
2023-02-12T18:20:04.560Z,0.06
2023-02-12T18:25:08.492Z,-0.02
2023-02-12T18:30:11.442Z,-0.09
2023-02-12T18:35:14.637Z,-0.15
2023-02-12T18:40:20.310Z,-0.22
2023-02-12T18:45:22.441Z,-0.28
2023-02-12T18:50:24.505Z,-0.22
2023-02-12T18:55:27.858Z,-0.15
2023-02-12T19:00:29.885Z,-0.21
2023-02-12T19:05:31.843Z,-0.15
2023-02-12T19:10:38.829Z,-0.12
2023-02-12T19:15:41.187Z,-0.11
2023-02-12T19:20:43.347Z,-0.21
2023-02-12T19:25:46.722Z,-0.56
2023-02-12T19:30:48.756Z,-0.63
2023-02-12T19:35:51.070Z,-0.41
2023-02-12T19:41:02.094Z,-0.45
2023-02-12T19:46:05.504Z,-0.71
2023-02-12T19:51:12.112Z,-0.70
2023-02-12T19:56:16.192Z,-0.67
2023-02-12T20:01:20.707Z,-0.64
2023-02-12T20:06:25.670Z,-0.62
2023-02-12T20:11:31.310Z,-0.68
2023-02-12T20:16:38.142Z,-0.73
2023-02-12T20:21:40.520Z,-0.75
2023-02-12T20:26:43.842Z,-0.74
2023-02-12T20:31:46.193Z,-0.82
2023-02-12T20:36:48.771Z,-0.82
2023-02-12T20:41:52.121Z,-0.85
2023-02-12T20:46:57.215Z,-0.88
2023-02-12T20:51:59.364Z,-0.94
2023-02-12T20:57:06.664Z,-1.03
2023-02-12T21:02:10.001Z,-1.11
2023-02-12T21:07:12.028Z,-0.92
2023-02-12T21:12:15.389Z,-0.66
2023-02-12T21:17:17.400Z,-0.37
2023-02-12T21:22:20.188Z,-0.07
2023-02-12T21:27:23.519Z,0.17
2023-02-12T21:32:25.638Z,0.40
2023-02-12T21:37:27.742Z,0.49
2023-02-12T21:42:31.198Z,0.53
2023-02-12T21:47:33.259Z,0.54
2023-02-12T21:52:35.414Z,0.42
2023-02-12T21:57:38.753Z,0.35
2023-02-12T22:02:40.751Z,0.39
2023-02-12T22:07:42.909Z,0.47
2023-02-12T22:12:46.277Z,0.55
2023-02-12T22:17:48.651Z,0.71
2023-02-12T22:22:50.626Z,0.81
2023-02-12T22:27:53.948Z,0.88
2023-02-12T22:32:55.913Z,0.89
2023-02-12T22:37:57.851Z,0.98
2023-02-12T22:43:01.110Z,1.03
2023-02-12T22:48:03.425Z,1.21
2023-02-12T22:53:05.471Z,1.43
2023-02-12T22:58:08.923Z,1.35
2023-02-12T23:03:11.230Z,1.23
2023-02-12T23:08:13.168Z,1.24
2023-02-12T23:13:28.984Z,1.44
2023-02-12T23:18:31.653Z,1.46
2023-02-12T23:23:33.820Z,1.42
2023-02-12T23:28:37.264Z,1.42
2023-02-12T23:33:39.266Z,1.47
2023-02-12T23:38:41.372Z,1.43
2023-02-12T23:43:44.652Z,1.39
2023-02-12T23:48:46.618Z,1.38
2023-02-12T23:53:48.600Z,1.37
2023-02-12T23:58:51.952Z,1.53
